Massena International Richards Field Massena US
ICAO: KMSS
IATA: MSS
Category: Medium
Scheduled Services: Yes

Elevation: 215 ft
TransAlt. 18000 ft.

Airport Communications:
BOSTON APP/DEP:135.25
ASOS:128.075
BURLINGTON RDO:122.2
CTAF/UNICOM:123

KMSS Zoom In..

Runways:

(A) RW 05 length 5600 ft width 100 ft
ILS 108.70 / hdg 45

(B) RW 09 length 4000 ft width 100 ft
---- / hdg 90

(C) RW 23 length 5600 ft width 100 ft
---- / hdg 225

(D) RW 27 length 4000 ft width 100 ft
---- / hdg 270

Location; KMSS
Day. 20 / Time. 09.53 Zulu
* Altimeter: 30.12
* Temperature: 00° c. 32°f.
* Wind from: 290° Speed 09 kn.
Dewpoint: -04° c.
Visibility: 10 Statute Miles.
Clouds: Overcast 2900 ft.

KMSS 200953Z AUTO 29009KT 10SM OVC029 00/M04 A3012 RMK AO2 SLP203 T00001039


Wind From 290°
Speed 09 kn.

  YouTube Music Video
 
jpsmedia.com for Web Design  worldairports.se 2018   terms of use